createdAt,value
2018-04-11T00:00:16.663Z,16.75
2018-04-11T00:01:19.995Z,16.75
2018-04-11T00:02:23.336Z,16.75
2018-04-11T00:03:27.537Z,16.75
2018-04-11T00:04:30.875Z,16.74
2018-04-11T00:05:34.195Z,16.74
2018-04-11T00:06:37.575Z,16.73
2018-04-11T00:07:40.907Z,16.73
2018-04-11T00:08:44.245Z,16.71
2018-04-11T00:09:47.607Z,16.70
2018-04-11T00:10:50.967Z,16.69
2018-04-11T00:11:54.347Z,16.68
2018-04-11T00:12:57.662Z,16.67
2018-04-11T00:14:01.014Z,16.66
2018-04-11T00:15:04.411Z,16.65
2018-04-11T00:16:07.769Z,16.63
2018-04-11T00:17:11.109Z,16.63
2018-04-11T00:18:14.501Z,16.62
2018-04-11T00:19:17.863Z,16.61
2018-04-11T00:20:21.421Z,16.60
2018-04-11T00:21:24.862Z,16.59
2018-04-11T00:22:28.167Z,16.58
2018-04-11T00:23:31.482Z,16.57
2018-04-11T00:24:34.845Z,16.58
2018-04-11T00:25:38.177Z,16.56
2018-04-11T00:26:41.502Z,16.55
2018-04-11T00:27:44.872Z,16.55
2018-04-11T00:28:48.197Z,16.54
2018-04-11T00:29:51.563Z,16.53
2018-04-11T00:30:54.863Z,16.51
2018-04-11T00:31:58.209Z,16.50
2018-04-11T00:33:01.606Z,16.50
2018-04-11T00:34:04.985Z,16.49
2018-04-11T00:35:08.403Z,16.49
2018-04-11T00:36:11.768Z,16.48
2018-04-11T00:37:15.141Z,16.47
2018-04-11T00:38:18.516Z,16.46
2018-04-11T00:39:21.895Z,16.46
2018-04-11T00:40:25.288Z,16.45
2018-04-11T00:41:28.624Z,16.44
2018-04-11T00:42:31.994Z,16.44
2018-04-11T00:43:35.352Z,16.45
2018-04-11T00:44:38.662Z,16.46
2018-04-11T00:45:42.477Z,16.47
2018-04-11T00:46:45.774Z,16.47
2018-04-11T00:47:49.099Z,16.47
2018-04-11T00:48:52.511Z,16.47
2018-04-11T00:49:55.868Z,16.48
2018-04-11T00:50:59.258Z,16.48
2018-04-11T00:52:02.670Z,16.48
2018-04-11T00:53:17.684Z,16.49
2018-04-11T00:54:20.994Z,16.47
2018-04-11T00:55:24.347Z,16.48
2018-04-11T00:56:27.734Z,16.50
2018-04-11T00:57:31.054Z,16.50
2018-04-11T00:58:34.388Z,16.52
2018-04-11T00:59:37.769Z,16.52
2018-04-11T01:00:41.125Z,16.52
2018-04-11T01:01:44.534Z,16.52
2018-04-11T01:02:47.879Z,16.53
2018-04-11T01:03:51.219Z,16.53
2018-04-11T01:04:54.762Z,16.53
2018-04-11T01:05:58.088Z,16.54
2018-04-11T01:07:01.433Z,16.54
2018-04-11T01:08:04.808Z,16.54
2018-04-11T01:09:08.130Z,16.54
2018-04-11T01:10:11.442Z,16.53
2018-04-11T01:11:14.767Z,16.53
2018-04-11T01:12:18.146Z,16.53
2018-04-11T01:13:21.471Z,16.54
2018-04-11T01:14:24.863Z,16.53
2018-04-11T01:15:28.195Z,16.53
2018-04-11T01:16:31.498Z,16.54
2018-04-11T01:17:35.053Z,16.53
2018-04-11T01:18:38.374Z,16.52
2018-04-11T01:19:41.746Z,16.51
2018-04-11T01:20:45.121Z,16.51
2018-04-11T01:21:48.427Z,16.51
2018-04-11T01:22:51.775Z,16.50
2018-04-11T01:23:55.086Z,16.51
2018-04-11T01:24:58.447Z,16.52
2018-04-11T01:26:01.826Z,16.52
2018-04-11T01:27:05.180Z,16.52
2018-04-11T01:28:08.519Z,16.53
2018-04-11T01:29:11.912Z,16.54
2018-04-11T01:30:15.267Z,16.54
2018-04-11T01:31:18.666Z,16.55
2018-04-11T01:32:21.987Z,16.55
2018-04-11T01:33:25.362Z,16.55
2018-04-11T01:34:28.696Z,16.54
2018-04-11T01:35:32.041Z,16.54
2018-04-11T01:36:35.515Z,16.55
2018-04-11T01:37:38.859Z,16.55
2018-04-11T01:38:42.189Z,16.55
2018-04-11T01:39:45.505Z,16.56
2018-04-11T01:40:48.836Z,16.56
2018-04-11T01:41:52.210Z,16.56
2018-04-11T01:42:55.527Z,16.57
2018-04-11T01:43:58.887Z,16.57
2018-04-11T01:45:02.258Z,16.57
2018-04-11T01:46:05.585Z,16.58
2018-04-11T01:47:08.961Z,16.58
2018-04-11T01:48:12.280Z,16.57
2018-04-11T01:49:15.650Z,16.57
2018-04-11T01:50:18.973Z,16.57
2018-04-11T01:51:22.359Z,16.58
2018-04-11T01:52:26.079Z,16.58
2018-04-11T01:53:30.184Z,16.57
2018-04-11T01:54:33.600Z,16.57
2018-04-11T01:55:36.962Z,16.57
2018-04-11T01:56:40.342Z,16.56
2018-04-11T01:57:43.747Z,16.56
2018-04-11T01:58:47.118Z,16.56
2018-04-11T01:59:50.494Z,16.56
2018-04-11T02:00:53.815Z,16.55
2018-04-11T02:01:57.167Z,16.55
2018-04-11T02:03:00.588Z,16.55
2018-04-11T02:04:03.937Z,16.54
2018-04-11T02:05:07.416Z,16.53
2018-04-11T02:06:10.851Z,16.51
2018-04-11T02:07:14.182Z,16.49
2018-04-11T02:08:17.591Z,16.48
2018-04-11T02:09:21.116Z,16.47
2018-04-11T02:10:24.439Z,16.47
2018-04-11T02:11:28.152Z,16.47
2018-04-11T02:12:33.599Z,16.47
2018-04-11T02:13:36.989Z,16.47
2018-04-11T02:14:40.979Z,16.47
2018-04-11T02:15:44.369Z,16.48
2018-04-11T02:16:47.694Z,16.48
2018-04-11T02:17:51.148Z,16.47
2018-04-11T02:18:54.509Z,16.46
2018-04-11T02:19:57.869Z,16.45
2018-04-11T02:21:01.353Z,16.45
2018-04-11T02:22:04.770Z,16.46
2018-04-11T02:23:08.144Z,16.44
2018-04-11T02:24:12.498Z,16.44
2018-04-11T02:25:15.842Z,16.42
2018-04-11T02:26:19.185Z,16.41
2018-04-11T02:27:22.512Z,16.41
2018-04-11T02:28:25.839Z,16.41
2018-04-11T02:29:29.147Z,16.40
2018-04-11T02:30:32.481Z,16.40
2018-04-11T02:31:35.831Z,16.38
2018-04-11T02:32:39.231Z,16.38
2018-04-11T02:33:42.562Z,16.38
2018-04-11T02:34:45.933Z,16.38
2018-04-11T02:35:49.232Z,16.39
2018-04-11T02:36:52.560Z,16.40
2018-04-11T02:37:55.905Z,16.40
2018-04-11T02:38:59.228Z,16.40
2018-04-11T02:40:02.555Z,16.40
2018-04-11T02:41:05.916Z,16.40
2018-04-11T02:42:09.243Z,16.40
2018-04-11T02:43:12.592Z,16.38
2018-04-11T02:44:15.911Z,16.39
2018-04-11T02:45:19.235Z,16.40
2018-04-11T02:46:22.556Z,16.40
2018-04-11T02:47:25.966Z,16.40
2018-04-11T02:48:29.283Z,16.40
2018-04-11T02:49:32.621Z,16.41
2018-04-11T02:50:35.984Z,16.41
2018-04-11T02:51:39.306Z,16.42
2018-04-11T02:52:42.647Z,16.42
2018-04-11T02:53:45.971Z,16.41
2018-04-11T02:54:49.286Z,16.41
2018-04-11T02:55:52.597Z,16.42
2018-04-11T02:56:55.922Z,16.41
2018-04-11T02:57:59.386Z,16.39
2018-04-11T02:59:02.775Z,16.38
2018-04-11T03:00:06.126Z,16.37
2018-04-11T03:01:09.471Z,16.36
2018-04-11T03:02:12.810Z,16.34
2018-04-11T03:03:16.204Z,16.32
2018-04-11T03:04:19.536Z,16.31
2018-04-11T03:05:22.884Z,16.30
2018-04-11T03:06:26.200Z,16.30
2018-04-11T03:07:29.524Z,16.29
2018-04-11T03:08:32.908Z,16.28
2018-04-11T03:09:36.277Z,16.27
2018-04-11T03:10:39.620Z,16.27
2018-04-11T03:11:42.947Z,16.26
2018-04-11T03:12:46.301Z,16.26
2018-04-11T03:13:49.650Z,16.24
2018-04-11T03:14:53.017Z,16.23
2018-04-11T03:15:56.342Z,16.22
2018-04-11T03:16:59.684Z,16.21
2018-04-11T03:18:02.994Z,16.20
2018-04-11T03:19:06.359Z,16.20
2018-04-11T03:20:09.683Z,16.19
2018-04-11T03:21:13.202Z,16.20
2018-04-11T03:22:16.585Z,16.19
2018-04-11T03:23:19.930Z,16.19
2018-04-11T03:24:23.285Z,16.19
2018-04-11T03:25:26.632Z,16.20
2018-04-11T03:26:29.987Z,16.20
2018-04-11T03:27:33.310Z,16.20
2018-04-11T03:28:36.696Z,16.22
2018-04-11T03:29:40.022Z,16.22
2018-04-11T03:30:43.337Z,16.22
2018-04-11T03:31:46.715Z,16.22
2018-04-11T03:32:50.084Z,16.22
2018-04-11T03:33:53.450Z,16.22
2018-04-11T03:34:56.858Z,16.22
2018-04-11T03:36:00.223Z,16.23
2018-04-11T03:37:03.552Z,16.22
2018-04-11T03:38:07.006Z,16.21
2018-04-11T03:39:10.327Z,16.20
2018-04-11T03:40:13.665Z,16.20
2018-04-11T03:41:16.975Z,16.19
2018-04-11T03:42:20.301Z,16.18
2018-04-11T03:43:23.699Z,16.16
2018-04-11T03:44:27.054Z,16.15
2018-04-11T03:45:30.419Z,16.14
2018-04-11T03:46:33.777Z,16.13
2018-04-11T03:47:37.243Z,16.12
2018-04-11T03:48:40.622Z,16.12
2018-04-11T03:49:43.935Z,16.11
2018-04-11T03:50:47.454Z,16.11
2018-04-11T03:51:50.793Z,16.10
2018-04-11T03:52:54.338Z,16.10
2018-04-11T03:53:57.675Z,16.11
2018-04-11T03:55:01.082Z,16.11
2018-04-11T03:56:04.425Z,16.12
2018-04-11T03:57:07.758Z,16.12
2018-04-11T03:58:11.060Z,16.12
2018-04-11T03:59:14.385Z,16.13
2018-04-11T04:00:17.738Z,16.13
2018-04-11T04:01:21.110Z,16.13
2018-04-11T04:02:24.594Z,16.14
2018-04-11T04:03:27.971Z,16.14
2018-04-11T04:04:31.454Z,16.15
2018-04-11T04:05:38.490Z,16.16
2018-04-11T04:06:42.045Z,16.15
2018-04-11T04:07:45.584Z,16.16
2018-04-11T04:08:48.948Z,16.17
2018-04-11T04:09:52.275Z,16.18
2018-04-11T04:10:55.591Z,16.18
2018-04-11T04:11:58.929Z,16.19
2018-04-11T04:13:02.352Z,16.19
2018-04-11T04:14:17.356Z,16.20
2018-04-11T04:15:32.306Z,16.18
2018-04-11T04:16:47.367Z,16.16
2018-04-11T04:18:02.558Z,16.15
2018-04-11T04:20:46.077Z,16.10
2018-04-11T04:21:49.659Z,16.12
2018-04-11T04:22:53.083Z,16.14
2018-04-11T04:23:56.555Z,16.15
2018-04-11T04:24:59.890Z,16.16
2018-04-11T04:26:03.303Z,16.17
2018-04-11T04:27:06.771Z,16.18
2018-04-11T04:28:10.146Z,16.18
2018-04-11T04:29:13.492Z,16.18
2018-04-11T04:30:16.880Z,16.18
2018-04-11T04:31:20.191Z,16.18
2018-04-11T04:32:23.505Z,16.18
2018-04-11T04:33:26.826Z,16.18
2018-04-11T04:34:30.203Z,16.18
2018-04-11T04:35:33.610Z,16.18
2018-04-11T04:36:36.980Z,16.18
2018-04-11T04:37:40.360Z,16.18
2018-04-11T04:38:43.717Z,16.18
2018-04-11T04:39:47.047Z,16.17
2018-04-11T04:40:50.475Z,16.16
2018-04-11T04:41:53.939Z,16.16
2018-04-11T04:42:57.272Z,16.16
2018-04-11T04:44:00.609Z,16.15
2018-04-11T04:45:03.975Z,16.15
2018-04-11T04:46:07.348Z,16.16
2018-04-11T04:47:10.693Z,16.15
2018-04-11T04:48:14.097Z,16.15
2018-04-11T04:49:17.443Z,16.14
2018-04-11T04:50:20.781Z,16.15
2018-04-11T04:51:24.142Z,16.14
2018-04-11T04:52:27.447Z,16.14
2018-04-11T04:53:30.766Z,16.14
2018-04-11T04:54:34.088Z,16.15
2018-04-11T04:55:37.431Z,16.14
2018-04-11T04:56:40.807Z,16.14
2018-04-11T04:57:44.163Z,16.14
2018-04-11T04:58:47.486Z,16.13
2018-04-11T04:59:50.833Z,16.13
2018-04-11T05:00:54.201Z,16.13
2018-04-11T05:01:57.583Z,16.13
2018-04-11T05:03:00.968Z,16.13
2018-04-11T05:04:04.335Z,16.12
2018-04-11T05:05:07.655Z,16.12
2018-04-11T05:06:11.028Z,16.10
2018-04-11T05:07:14.320Z,16.10
2018-04-11T05:08:17.654Z,16.10
2018-04-11T05:09:22.715Z,16.09
2018-04-11T05:10:26.146Z,16.09
2018-04-11T05:11:29.606Z,16.09
2018-04-11T05:12:32.932Z,16.08
2018-04-11T05:13:36.340Z,16.07
2018-04-11T05:14:39.691Z,16.06
2018-04-11T05:15:43.117Z,16.06
2018-04-11T05:16:46.543Z,16.06
2018-04-11T05:17:49.897Z,16.05
2018-04-11T05:18:53.362Z,16.05
2018-04-11T05:19:56.737Z,16.06
2018-04-11T05:21:00.104Z,16.06
2018-04-11T05:22:03.604Z,16.06
2018-04-11T05:23:07.491Z,16.05
2018-04-11T05:24:10.876Z,16.06
2018-04-11T05:25:14.256Z,16.06
2018-04-11T05:26:17.575Z,16.06
2018-04-11T05:27:21.881Z,16.06
2018-04-11T05:28:25.229Z,16.06
2018-04-11T05:29:29.403Z,16.05
2018-04-11T05:30:32.698Z,16.06
2018-04-11T05:31:36.034Z,16.07
2018-04-11T05:32:39.493Z,16.08
2018-04-11T05:33:42.858Z,16.08
2018-04-11T05:34:46.215Z,16.08
2018-04-11T05:35:49.591Z,16.09
2018-04-11T05:36:52.943Z,16.09
2018-04-11T05:37:56.310Z,16.10
2018-04-11T05:38:59.633Z,16.10
2018-04-11T05:40:03.018Z,16.10
2018-04-11T05:41:06.402Z,16.10
2018-04-11T05:42:09.749Z,16.10
2018-04-11T05:43:13.159Z,16.10
2018-04-11T05:44:16.483Z,16.10
2018-04-11T05:45:19.824Z,16.10
2018-04-11T05:46:23.224Z,16.10
2018-04-11T05:47:26.606Z,16.10
2018-04-11T05:48:29.953Z,16.11
2018-04-11T05:49:33.317Z,16.11
2018-04-11T05:50:36.893Z,16.11
2018-04-11T05:51:40.256Z,16.11
2018-04-11T05:52:43.586Z,16.11
2018-04-11T05:53:47.055Z,16.12
2018-04-11T05:54:50.484Z,16.12
2018-04-11T05:55:53.804Z,16.12
2018-04-11T05:56:57.159Z,16.12
2018-04-11T05:58:00.480Z,16.12
2018-04-11T05:59:03.874Z,16.13
2018-04-11T06:00:07.223Z,16.13
2018-04-11T06:01:10.599Z,16.12
2018-04-11T06:02:14.009Z,16.13
2018-04-11T06:03:17.439Z,16.14
2018-04-11T06:04:20.774Z,16.14
2018-04-11T06:05:24.211Z,16.13
2018-04-11T06:06:27.552Z,16.13
2018-04-11T06:07:30.858Z,16.14
2018-04-11T06:08:34.392Z,16.14
2018-04-11T06:09:37.811Z,16.14
2018-04-11T06:10:41.148Z,16.14
2018-04-11T06:11:44.470Z,16.13
2018-04-11T06:12:47.883Z,16.14
2018-04-11T06:13:51.268Z,16.13
2018-04-11T06:14:54.640Z,16.13
2018-04-11T06:15:57.989Z,16.14
2018-04-11T06:17:01.420Z,16.14
2018-04-11T06:18:04.713Z,16.14
2018-04-11T06:19:08.066Z,16.14
2018-04-11T06:20:11.486Z,16.15
2018-04-11T06:21:15.999Z,16.15
2018-04-11T06:22:19.395Z,16.14
2018-04-11T06:23:22.770Z,16.14
2018-04-11T06:24:26.216Z,16.14
2018-04-11T06:25:30.259Z,16.14
2018-04-11T06:26:34.155Z,16.14
2018-04-11T06:27:37.542Z,16.14
2018-04-11T06:28:40.930Z,16.14
2018-04-11T06:29:44.333Z,16.14
2018-04-11T06:30:47.743Z,16.15
2018-04-11T06:31:51.160Z,16.15
2018-04-11T06:32:54.467Z,16.14
2018-04-11T06:33:57.802Z,16.15
2018-04-11T06:35:01.259Z,16.16
2018-04-11T06:36:04.568Z,16.17
2018-04-11T06:37:07.949Z,16.17
2018-04-11T06:38:11.293Z,16.18
2018-04-11T06:39:14.615Z,16.18
2018-04-11T06:40:17.940Z,16.19
2018-04-11T06:41:21.444Z,16.20
2018-04-11T06:42:24.824Z,16.20
2018-04-11T06:43:28.223Z,16.21
2018-04-11T06:44:31.518Z,16.21
2018-04-11T06:45:34.863Z,16.21
2018-04-11T06:46:38.269Z,16.21
2018-04-11T06:47:41.738Z,16.21
2018-04-11T06:48:45.066Z,16.21
2018-04-11T06:49:48.450Z,16.22
2018-04-11T06:50:51.812Z,16.22
2018-04-11T06:51:55.222Z,16.22
2018-04-11T06:52:58.610Z,16.23
2018-04-11T06:54:01.959Z,16.24
2018-04-11T06:55:05.320Z,16.25
2018-04-11T06:56:08.639Z,16.25
2018-04-11T06:57:11.978Z,16.26
2018-04-11T06:58:15.322Z,16.27
2018-04-11T06:59:18.678Z,16.28
2018-04-11T07:00:22.029Z,16.28
2018-04-11T07:01:25.409Z,16.28
2018-04-11T07:02:28.794Z,16.29
2018-04-11T07:03:32.120Z,16.30
2018-04-11T07:04:35.444Z,16.30
2018-04-11T07:05:38.868Z,16.31
2018-04-11T07:06:42.226Z,16.30
2018-04-11T07:07:45.683Z,16.31
2018-04-11T07:08:49.078Z,16.32
2018-04-11T07:09:52.530Z,16.33
2018-04-11T07:10:55.979Z,16.33
2018-04-11T07:11:59.285Z,16.33
2018-04-11T07:13:02.672Z,16.34
2018-04-11T07:14:06.084Z,16.33
2018-04-11T07:15:09.488Z,16.34
2018-04-11T07:16:12.861Z,16.33
2018-04-11T07:17:16.223Z,16.32
2018-04-11T07:18:19.712Z,16.33
2018-04-11T07:19:23.038Z,16.35
2018-04-11T07:20:26.448Z,16.35
2018-04-11T07:21:29.860Z,16.36
2018-04-11T07:22:33.460Z,16.37
2018-04-11T07:23:36.812Z,16.37
2018-04-11T07:24:40.175Z,16.37
2018-04-11T07:25:43.619Z,16.37
2018-04-11T07:26:47.060Z,16.37
2018-04-11T07:27:50.454Z,16.37
2018-04-11T07:28:53.896Z,16.37
2018-04-11T07:29:57.218Z,16.36
2018-04-11T07:31:00.696Z,16.37
2018-04-11T07:32:04.139Z,16.36
2018-04-11T07:33:07.544Z,16.37
2018-04-11T07:34:10.912Z,16.38
2018-04-11T07:35:14.324Z,16.39
2018-04-11T07:36:17.731Z,16.39
2018-04-11T07:37:21.151Z,16.40
2018-04-11T07:38:24.513Z,16.41
2018-04-11T07:39:27.858Z,16.42
2018-04-11T07:40:31.224Z,16.44
2018-04-11T07:41:34.701Z,16.45
2018-04-11T07:42:38.086Z,16.45
2018-04-11T07:43:41.466Z,16.45
2018-04-11T07:44:44.814Z,16.46
2018-04-11T07:45:48.188Z,16.46
2018-04-11T07:46:51.533Z,16.45
2018-04-11T07:47:54.924Z,16.45
2018-04-11T07:48:58.272Z,16.45
2018-04-11T07:50:01.668Z,16.45
2018-04-11T07:51:05.032Z,16.45
2018-04-11T07:52:08.429Z,16.44
2018-04-11T07:53:11.875Z,16.44
2018-04-11T07:54:15.335Z,16.43
2018-04-11T07:55:18.677Z,16.42
2018-04-11T07:56:22.058Z,16.40
2018-04-11T07:57:25.387Z,16.41
2018-04-11T07:58:28.744Z,16.40
2018-04-11T07:59:32.179Z,16.40
2018-04-11T08:00:35.547Z,16.40
2018-04-11T08:01:38.862Z,16.40
2018-04-11T08:02:42.325Z,16.40
2018-04-11T08:03:45.684Z,16.40
2018-04-11T08:04:49.053Z,16.38
2018-04-11T08:05:52.392Z,16.39
2018-04-11T08:06:55.756Z,16.38
2018-04-11T08:07:59.109Z,16.39
2018-04-11T08:09:02.528Z,16.39
2018-04-11T08:10:05.913Z,16.40
2018-04-11T08:11:09.266Z,16.41
2018-04-11T08:12:12.669Z,16.43
2018-04-11T08:13:16.104Z,16.45
2018-04-11T08:14:19.441Z,16.46
2018-04-11T08:15:22.779Z,16.48
2018-04-11T08:16:26.246Z,16.48
2018-04-11T08:17:29.574Z,16.49
2018-04-11T08:18:32.942Z,16.49
2018-04-11T08:19:36.252Z,16.49
2018-04-11T08:20:39.689Z,16.50
2018-04-11T08:21:43.103Z,16.51
2018-04-11T08:22:46.702Z,16.53
2018-04-11T08:23:49.528Z,16.53
2018-04-11T08:24:53.010Z,16.54
2018-04-11T08:25:56.359Z,16.55
2018-04-11T08:26:59.756Z,16.55
2018-04-11T08:28:03.176Z,16.56
2018-04-11T08:29:06.514Z,16.56
2018-04-11T08:30:09.923Z,16.56
2018-04-11T08:31:13.347Z,16.56
2018-04-11T08:32:16.734Z,16.56
2018-04-11T08:33:20.091Z,16.56
2018-04-11T08:34:23.410Z,16.56
2018-04-11T08:35:26.791Z,16.55
2018-04-11T08:36:30.278Z,16.55
2018-04-11T08:37:33.677Z,16.54
2018-04-11T08:38:37.075Z,16.53
2018-04-11T08:39:40.395Z,16.53
2018-04-11T08:40:43.789Z,16.53
2018-04-11T08:41:47.526Z,16.53
2018-04-11T08:42:51.091Z,16.54
2018-04-11T08:43:54.169Z,16.54
2018-04-11T08:44:57.668Z,16.56
2018-04-11T08:46:02.255Z,16.56
2018-04-11T08:47:05.374Z,16.57
2018-04-11T08:48:08.468Z,16.59
2018-04-11T08:49:11.591Z,16.60
2018-04-11T08:50:15.825Z,16.63
2018-04-11T08:51:20.438Z,16.66
2018-04-11T08:52:26.376Z,16.69
2018-04-11T08:53:29.509Z,16.70
2018-04-11T08:54:32.575Z,16.71
2018-04-11T08:55:35.631Z,16.70
2018-04-11T08:56:38.735Z,16.70
2018-04-11T08:57:41.864Z,16.70
2018-04-11T08:58:45.003Z,16.70
2018-04-11T08:59:48.311Z,16.70
2018-04-11T09:00:51.420Z,16.70
2018-04-11T09:01:54.475Z,16.69
2018-04-11T09:02:57.752Z,16.69
2018-04-11T09:04:01.119Z,16.70
2018-04-11T09:05:04.409Z,16.72
2018-04-11T09:06:07.619Z,16.74
2018-04-11T09:07:10.753Z,16.75
2018-04-11T09:08:14.833Z,16.76
2018-04-11T09:09:18.010Z,16.77
2018-04-11T09:10:21.114Z,16.77
2018-04-11T09:11:26.888Z,16.77
2018-04-11T09:12:30.043Z,16.78
2018-04-11T09:13:33.225Z,16.78
2018-04-11T09:14:37.439Z,16.78
2018-04-11T09:15:40.524Z,16.77
2018-04-11T09:16:44.792Z,16.76
2018-04-11T09:17:48.569Z,16.76
2018-04-11T09:18:51.747Z,16.76
2018-04-11T09:19:54.867Z,16.77
2018-04-11T09:20:57.938Z,16.76
2018-04-11T09:22:01.008Z,16.76
2018-04-11T09:23:04.343Z,16.76
2018-04-11T09:24:07.527Z,16.77
2018-04-11T09:25:10.659Z,16.78
2018-04-11T09:26:14.050Z,16.79
2018-04-11T09:27:17.493Z,16.80
2018-04-11T09:28:20.644Z,16.80
2018-04-11T09:29:23.727Z,16.78
2018-04-11T09:30:26.960Z,16.76
2018-04-11T09:31:29.999Z,16.75
2018-04-11T09:32:33.500Z,16.74
2018-04-11T09:33:36.678Z,16.74
2018-04-11T09:34:39.862Z,16.74
2018-04-11T09:35:43.543Z,16.73
2018-04-11T09:36:48.414Z,16.73
2018-04-11T09:37:51.519Z,16.73
2018-04-11T09:38:57.418Z,16.72
2018-04-11T09:40:01.667Z,16.71
2018-04-11T09:41:04.782Z,16.70
2018-04-11T09:42:08.440Z,16.71
2018-04-11T09:43:11.504Z,16.70
2018-04-11T09:44:17.725Z,16.71
2018-04-11T09:45:20.778Z,16.70
2018-04-11T09:46:33.559Z,16.71
2018-04-11T09:47:36.623Z,16.69
2018-04-11T09:48:39.742Z,16.70
2018-04-11T09:49:42.814Z,16.70
2018-04-11T09:50:46.039Z,16.71
2018-04-11T09:51:49.183Z,16.71
2018-04-11T09:52:52.350Z,16.73
2018-04-11T09:53:55.391Z,16.72
2018-04-11T09:54:58.614Z,16.74
2018-04-11T09:56:01.753Z,16.74
2018-04-11T09:57:04.887Z,16.75
2018-04-11T09:58:07.971Z,16.75
2018-04-11T09:59:12.163Z,16.74
2018-04-11T10:00:16.238Z,16.74
2018-04-11T10:01:21.186Z,16.75
2018-04-11T10:02:24.356Z,16.76
2018-04-11T10:03:27.479Z,16.78
2018-04-11T10:04:30.639Z,16.79
2018-04-11T10:05:33.785Z,16.81
2018-04-11T10:06:36.868Z,16.84
2018-04-11T10:07:40.001Z,16.84
2018-04-11T10:08:43.621Z,16.86
2018-04-11T10:09:46.712Z,16.87
2018-04-11T10:10:50.207Z,16.89
2018-04-11T10:12:10.241Z,16.90
2018-04-11T10:13:13.378Z,16.89
2018-04-11T10:14:24.250Z,16.93
2018-04-11T10:15:27.297Z,16.95
2018-04-11T10:16:30.419Z,16.98
2018-04-11T10:17:33.495Z,17.01
2018-04-11T10:18:36.653Z,17.04
2018-04-11T10:19:39.825Z,17.06
2018-04-11T10:20:42.967Z,17.06
2018-04-11T10:21:46.029Z,17.08
2018-04-11T10:22:50.589Z,17.09
2018-04-11T10:23:54.307Z,17.09
2018-04-11T10:24:57.447Z,17.10
2018-04-11T10:26:00.543Z,17.09
2018-04-11T10:27:03.700Z,17.10
2018-04-11T10:28:06.777Z,17.09
2018-04-11T10:29:10.395Z,17.10
2018-04-11T10:30:18.189Z,17.11
2018-04-11T10:31:21.844Z,17.11
2018-04-11T10:32:26.091Z,17.12
2018-04-11T10:33:29.141Z,17.11
2018-04-11T10:34:33.443Z,17.11
2018-04-11T10:35:36.536Z,17.09
2018-04-11T10:36:39.630Z,17.06
2018-04-11T10:37:42.747Z,17.03
2018-04-11T10:38:45.879Z,17.00
2018-04-11T10:39:49.830Z,16.98
2018-04-11T10:40:52.998Z,16.96
2018-04-11T10:41:56.064Z,16.95
2018-04-11T10:42:59.144Z,16.94
2018-04-11T10:44:02.359Z,16.94
2018-04-11T10:45:05.489Z,16.93
2018-04-11T10:46:08.690Z,16.93
2018-04-11T10:47:11.737Z,16.93
2018-04-11T10:48:14.835Z,16.93
2018-04-11T10:49:17.897Z,16.93
2018-04-11T10:50:21.832Z,16.92
2018-04-11T10:51:25.107Z,16.93
2018-04-11T10:52:28.144Z,16.93
2018-04-11T10:53:31.435Z,16.94
2018-04-11T10:54:34.627Z,16.95
2018-04-11T10:55:37.821Z,16.95
2018-04-11T10:56:43.313Z,16.96
2018-04-11T10:57:46.386Z,16.96
2018-04-11T10:58:49.436Z,16.97
2018-04-11T10:59:52.573Z,16.99
2018-04-11T11:00:55.740Z,17.00
2018-04-11T11:01:59.584Z,17.03
2018-04-11T11:03:02.658Z,17.05
2018-04-11T11:04:05.757Z,17.08
2018-04-11T11:05:08.796Z,17.10
2018-04-11T11:06:12.976Z,17.12
2018-04-11T11:07:16.100Z,17.13
2018-04-11T11:08:19.218Z,17.14
2018-04-11T11:09:22.375Z,17.15
2018-04-11T11:10:25.417Z,17.15
2018-04-11T11:11:28.513Z,17.14
2018-04-11T11:12:31.868Z,17.13
2018-04-11T11:13:35.815Z,17.11
2018-04-11T11:14:38.869Z,17.09
2018-04-11T11:15:41.927Z,17.08
2018-04-11T11:16:45.128Z,17.07
2018-04-11T11:17:48.188Z,17.05
2018-04-11T11:18:51.256Z,17.05
2018-04-11T11:20:02.768Z,17.04
2018-04-11T11:21:05.998Z,17.02
2018-04-11T11:22:09.096Z,17.01
2018-04-11T11:23:12.139Z,17.00
2018-04-11T11:24:15.319Z,17.00
2018-04-11T11:25:18.434Z,16.99
2018-04-11T11:26:21.583Z,17.00
2018-04-11T11:27:24.680Z,16.99
2018-04-11T11:28:28.087Z,17.01
2018-04-11T11:29:36.599Z,17.02
2018-04-11T11:30:40.284Z,17.03
2018-04-11T11:31:43.367Z,17.06
2018-04-11T11:32:46.521Z,17.10
2018-04-11T11:33:49.666Z,17.13
2018-04-11T11:34:55.227Z,17.17
2018-04-11T11:35:59.297Z,17.22
2018-04-11T11:37:03.358Z,17.26
2018-04-11T11:38:06.632Z,17.31
2018-04-11T11:39:09.660Z,17.33
2018-04-11T11:40:14.391Z,17.35
2018-04-11T11:41:18.021Z,17.36
2018-04-11T11:42:21.671Z,17.36
2018-04-11T11:43:24.818Z,17.37
2018-04-11T11:44:27.921Z,17.37
2018-04-11T11:45:31.908Z,17.37
2018-04-11T11:46:35.864Z,17.36
2018-04-11T11:47:39.150Z,17.34
2018-04-11T11:50:01.914Z,17.28
2018-04-11T11:51:05.059Z,17.24
2018-04-11T11:52:08.152Z,17.23
2018-04-11T11:53:11.269Z,17.21
2018-04-11T11:54:14.380Z,17.20
2018-04-11T11:55:17.572Z,17.18
2018-04-11T11:56:20.599Z,17.17
2018-04-11T11:57:23.716Z,17.16
2018-04-11T11:58:26.781Z,17.15
2018-04-11T11:59:29.994Z,17.15
2018-04-11T12:00:33.087Z,17.15
2018-04-11T12:01:36.160Z,17.16
2018-04-11T12:02:39.194Z,17.15
2018-04-11T12:03:42.243Z,17.15
2018-04-11T12:04:45.706Z,17.15
2018-04-11T12:05:48.814Z,17.16
2018-04-11T12:06:51.878Z,17.16
2018-04-11T12:07:54.984Z,17.17
2018-04-11T12:08:58.030Z,17.18
2018-04-11T12:10:01.161Z,17.20
2018-04-11T12:11:04.278Z,17.20
2018-04-11T12:12:07.352Z,17.22
2018-04-11T12:13:10.584Z,17.24
2018-04-11T12:14:13.646Z,17.24
2018-04-11T12:15:16.937Z,17.27
2018-04-11T12:16:20.025Z,17.27
2018-04-11T12:17:23.137Z,17.30
2018-04-11T12:18:26.256Z,17.32
2018-04-11T12:19:29.333Z,17.35
2018-04-11T12:20:33.354Z,17.39
2018-04-11T12:21:51.448Z,17.44
2018-04-11T12:22:54.894Z,17.48
2018-04-11T12:23:58.044Z,17.54
2018-04-11T12:25:01.156Z,17.60
2018-04-11T12:26:04.276Z,17.67
2018-04-11T12:27:08.008Z,17.72
2018-04-11T12:28:15.098Z,17.76
2018-04-11T12:29:18.176Z,17.77
2018-04-11T12:30:22.434Z,17.80
2018-04-11T12:31:30.961Z,17.81
2018-04-11T12:32:57.348Z,17.82
2018-04-11T12:34:00.447Z,17.83
2018-04-11T12:35:03.624Z,17.87
2018-04-11T12:36:06.926Z,17.89
2018-04-11T12:37:10.073Z,17.91
2018-04-11T12:38:13.578Z,17.93
2018-04-11T12:39:16.721Z,17.94
2018-04-11T12:40:20.226Z,17.94
2018-04-11T12:41:23.313Z,17.94
2018-04-11T12:42:26.444Z,17.92
2018-04-11T12:43:30.279Z,17.91
2018-04-11T12:44:33.396Z,17.90
2018-04-11T12:45:36.509Z,17.89
2018-04-11T12:46:39.812Z,17.88
2018-04-11T12:47:42.876Z,17.87
2018-04-11T12:48:46.754Z,17.85
2018-04-11T12:49:49.967Z,17.84
2018-04-11T12:50:53.040Z,17.83
2018-04-11T12:53:25.178Z,17.76
2018-04-11T12:54:31.508Z,17.75
2018-04-11T12:56:50.959Z,17.73
2018-04-11T12:57:54.559Z,17.73
2018-04-11T12:58:57.859Z,17.73
2018-04-11T13:00:01.784Z,17.74
2018-04-11T13:01:04.903Z,17.75
2018-04-11T13:02:08.848Z,17.76
2018-04-11T13:03:12.262Z,17.77
2018-04-11T13:04:16.341Z,17.78
2018-04-11T13:05:21.359Z,17.80
2018-04-11T13:06:26.333Z,17.82
2018-04-11T13:07:30.948Z,17.85
2018-04-11T13:08:36.176Z,17.88
2018-04-11T13:09:39.704Z,17.91
2018-04-11T13:10:43.481Z,17.94
2018-04-11T13:11:47.767Z,17.98
2018-04-11T13:12:51.565Z,18.02
2018-04-11T13:13:58.184Z,18.02
2018-04-11T13:15:06.167Z,18.03
2018-04-11T13:16:10.203Z,18.02
2018-04-11T13:17:14.665Z,18.01
2018-04-11T13:18:18.745Z,18.00
2018-04-11T13:19:22.755Z,18.00
2018-04-11T13:20:26.003Z,18.02
2018-04-11T13:21:30.965Z,18.04
2018-04-11T13:22:35.293Z,18.06
2018-04-11T13:23:38.464Z,18.09
2018-04-11T13:24:41.909Z,18.13
2018-04-11T13:25:46.319Z,18.16
2018-04-11T13:26:49.660Z,18.21
2018-04-11T13:27:52.801Z,18.23
2018-04-11T13:28:56.141Z,18.27
2018-04-11T13:29:59.174Z,18.31
2018-04-11T13:31:02.315Z,18.35
2018-04-11T13:32:05.552Z,18.40
2018-04-11T13:33:08.644Z,18.45
2018-04-11T13:34:11.691Z,18.50
2018-04-11T13:35:14.800Z,18.55
2018-04-11T13:36:17.842Z,18.58
2018-04-11T13:37:21.318Z,18.59
2018-04-11T13:38:24.378Z,18.59
2018-04-11T13:39:27.450Z,18.57
2018-04-11T13:40:30.483Z,18.58
2018-04-11T13:41:33.589Z,18.59
2018-04-11T13:42:36.695Z,18.59
2018-04-11T13:43:39.735Z,18.59
2018-04-11T13:44:42.855Z,18.58